ホノルル の空港の天気 - METARとTAF

ホノルル国際空港 ( PHNL / HNL ) - アメリカ ハワイ州ホノルル
飛行場実況気象(Metar)
観測時間12/10 08:53 HST (12/10 18:53 UTC)
風向・風速北北西 2m/s
視程10km以上
天気現象
なし
気温25℃
湿度64%
気圧1017.5hPa
METARPHNL 101853Z 33004KT 10SM CLR 25/18 A3005 RMK AO2 SLP175 T02500178 $
過去の天気等 Google飛行場航空写真 Wunderground天気予報

過去48時間のMETAR

飛行場予報(TAF)
発表時間: 12/10 07:20 HST (12/10 17:20 UTC)
予報対象時間: 10日8時 HST ~ 11日14時 HST
風向・風速北 3m/s
視程10km以上
なし
10日10時 HST から
風向・風速南 5m/s
視程10km以上
少しの雲 雲底高度 760m
全天の4割程度の雲 雲底高度 1370m
10日19時 HST から
風向・風速北北東 3m/s
視程10km以上
少しの雲 雲底高度 760m
10日22時 HST から
風向・風速北北西 2m/s
視程10km以上
少しの雲 雲底高度 760m
11日10時 HST から
風向・風速東南東 5m/s
視程10km以上
少しの雲 雲底高度 760m
全天の4割程度の雲 雲底高度 1370m
PHNL 101720Z 1018/1124 35005KT P6SM SKC
FM102000 17010KT P6SM FEW025 SCT045
FM110500 03006KT P6SM FEW025
FM110800 34004KT P6SM FEW025
FM112000 12009KT P6SM FEW025 SCT045